Bowring, Oklahoma
Current Conditions -  °F | °C
As of 10:53 AM on Thursday 23 Oct 2014 (Local Time) from KBVO Reporting Station
Broken Clouds Broken Clouds  
Wind Chill: 16°   Ceiling: 1100
Heat Index: 16°   Visibility: 10mi
Dew Point: 15°   Wind: 6mph
Humidity: 93%   Direction: 170°S
Pressure: 30.16"   Gusts: NA
Location:  36.88°N, 96.12°W
Report Text: KBVO 231553Z AUTO 17005KT 10SM BKN011 16/15 A3016 RMK AO2 SLP206 T01610150
Loading
Personal Weather Stations






























Interactive Weather Map
Tropical Storm Tracking
New forecast layout! Learn more

10-Day Weather Forecast

Advertisements
Track Severe Weather on mobile